PWSweather.com
Personal Weather Stations
Station Observations
IBRABANT12
Leuven, BlandenBE 3052

LeuvenBlandenBE 3052

Lat: 50.8252218, Lon: 4.709682799999996

Elevation: 193

Station Type: Davis Vantage Vue

http://www.weerstationblanden.be

Latest ConditionsUpdated 5:40:10 PM GMT+01:01 Saturday, Jul 30, 2016
Currently Today's Max Today's Min Today's Average
Temperature 70.8°F21.6°C 72.9°F22.7°C 58.4°F14.7°C 64.6°F18.1°C
Dew Point 58.4°F14.7°C 61.4°F16.3°C 55.2°F12.9°C 57.8°F14.3°C
Winds 3.0 mph WSW4.8 kmh WSW 9.0 mph SW14.5 kmh SW - 5.1 mph 8.2 kmh
Wind Gusts 5.0 mph8.0 kmh 13.0 mph20.9 kmh - -
Humidity 65% 90% 61% 79%
Pressure 29.86 in1011.2 mb 29.89 in1012.2 mb 29.86 in1011.2 mb -
Hour Temp Dew Point Humidity Winds Wind Gusts Pressure Precip Precip Rate Daily Precip Total
05:40 PM 70.8°F21.6°C 58.4°F14.7°C 65% 3.0 mph WSW4.8 kmh WSW 5.0 mph8.0 kmh 29.86 in1011.2 mb - 0.00 in0.0 mm 0.00 in0.0 mm
05:30 PM 70.9°F21.6°C 58.1°F14.5°C 64% 5.4 mph SW8.7 kmh SW 6.0 mph9.7 kmh 29.86 in1011.2 mb - 0.00 in0.0 mm 0.00 in0.0 mm
05:20 PM 70.9°F21.6°C 58.1°F14.5°C 64% 4.9 mph SW7.9 kmh SW 6.0 mph9.7 kmh 29.86 in1011.2 mb - 0.00 in0.0 mm 0.00 in0.0 mm
05:10 PM 70.6°F21.4°C 57.8°F14.3°C 64% 5.2 mph WSW8.4 kmh WSW 7.0 mph11.3 kmh 29.86 in1011.2 mb - 0.00 in0.0 mm 0.00 in0.0 mm
05:00 PM 70.6°F21.4°C 57.8°F14.3°C 64% 6.5 mph SW10.5 kmh SW 7.0 mph11.3 kmh 29.86 in1011.2 mb - 0.00 in0.0 mm 0.00 in0.0 mm
04:50 PM 70.9°F21.6°C 57.7°F14.3°C 63% 8.4 mph SW13.5 kmh SW 11.0 mph17.7 kmh 29.86 in1011.2 mb - 0.00 in0.0 mm 0.00 in0.0 mm
04:40 PM 71.2°F21.8°C 58.0°F14.4°C 63% 6.8 mph SW10.9 kmh SW 10.0 mph16.1 kmh 29.87 in1011.5 mb - 0.00 in0.0 mm 0.00 in0.0 mm
04:30 PM 71.6°F22.0°C 58.8°F14.9°C 64% 7.8 mph W12.6 kmh W 12.0 mph19.3 kmh 29.87 in1011.5 mb - 0.00 in0.0 mm 0.00 in0.0 mm
04:20 PM 71.9°F22.2°C 57.7°F14.3°C 61% 8.4 mph SW13.5 kmh SW 9.0 mph14.5 kmh 29.87 in1011.5 mb - 0.00 in0.0 mm 0.00 in0.0 mm
04:10 PM 72.5°F22.5°C 58.3°F14.6°C 61% 8.6 mph SW13.8 kmh SW 10.0 mph16.1 kmh 29.86 in1011.2 mb - 0.00 in0.0 mm 0.00 in0.0 mm
04:00 PM 72.9°F22.7°C 58.7°F14.8°C 61% 6.9 mph SW11.1 kmh SW 9.0 mph14.5 kmh 29.86 in1011.2 mb - 0.00 in0.0 mm 0.00 in0.0 mm
03:50 PM 72.4°F22.4°C 59.1°F15.1°C 63% 4.1 mph SSW6.6 kmh SSW 5.0 mph8.0 kmh 29.86 in1011.2 mb - 0.00 in0.0 mm 0.00 in0.0 mm
03:40 PM 71.4°F21.9°C 59.4°F15.2°C 66% 5.8 mph SW9.3 kmh SW 10.0 mph16.1 kmh 29.87 in1011.5 mb - 0.00 in0.0 mm 0.00 in0.0 mm
03:30 PM 71.3°F21.8°C 58.9°F14.9°C 65% 8.8 mph SW14.2 kmh SW 11.0 mph17.7 kmh 29.87 in1011.5 mb - 0.00 in0.0 mm 0.00 in0.0 mm
03:20 PM 71.6°F22.0°C 59.6°F15.3°C 66% 6.2 mph SW10.0 kmh SW 11.0 mph17.7 kmh 29.87 in1011.5 mb - 0.00 in0.0 mm 0.00 in0.0 mm
03:10 PM 72.3°F22.4°C 59.4°F15.2°C 64% 5.5 mph SW8.9 kmh SW 10.0 mph16.1 kmh 29.87 in1011.5 mb - 0.00 in0.0 mm 0.00 in0.0 mm
03:00 PM 72.8°F22.7°C 59.5°F15.3°C 63% 6.0 mph SSW9.7 kmh SSW 9.0 mph14.5 kmh 29.87 in1011.5 mb - 0.00 in0.0 mm 0.00 in0.0 mm
02:50 PM 72.2°F22.3°C 58.5°F14.7°C 62% 6.5 mph W10.5 kmh W 10.0 mph16.1 kmh 29.87 in1011.5 mb - 0.00 in0.0 mm 0.00 in0.0 mm
02:40 PM 71.8°F22.1°C 58.5°F14.7°C 63% 2.7 mph SSE4.3 kmh SSE 3.0 mph4.8 kmh 29.87 in1011.5 mb - 0.00 in0.0 mm 0.00 in0.0 mm
02:30 PM 71.8°F22.1°C 59.0°F15.0°C 64% 4.8 mph SW7.7 kmh SW 6.0 mph9.7 kmh 29.87 in1011.5 mb - 0.00 in0.0 mm 0.00 in0.0 mm
02:20 PM 72.5°F22.5°C 59.2°F15.1°C 63% 7.4 mph SW11.9 kmh SW 10.0 mph16.1 kmh 29.88 in1011.9 mb - 0.00 in0.0 mm 0.00 in0.0 mm
02:10 PM 72.1°F22.3°C 59.7°F15.4°C 65% 7.5 mph SW12.1 kmh SW 9.0 mph14.5 kmh 29.88 in1011.9 mb - 0.00 in0.0 mm 0.00 in0.0 mm
02:00 PM 70.8°F21.6°C 59.3°F15.2°C 67% 5.2 mph WSW8.4 kmh WSW 7.0 mph11.3 kmh 29.88 in1011.9 mb - 0.00 in0.0 mm 0.00 in0.0 mm
01:50 PM 70.7°F21.5°C 59.6°F15.3°C 68% 5.3 mph NW8.5 kmh NW 9.0 mph14.5 kmh 29.88 in1011.9 mb - 0.00 in0.0 mm 0.00 in0.0 mm
01:40 PM 70.0°F21.1°C 59.4°F15.2°C 69% 1.5 mph SW2.4 kmh SW 1.0 mph1.6 kmh 29.88 in1011.9 mb - 0.00 in0.0 mm 0.00 in0.0 mm
01:30 PM 70.3°F21.3°C 60.1°F15.6°C 70% 5.6 mph N9.0 kmh N 8.0 mph12.9 kmh 29.88 in1011.9 mb - 0.00 in0.0 mm 0.00 in0.0 mm
01:20 PM 70.2°F21.2°C 60.4°F15.8°C 71% 4.5 mph WSW7.2 kmh WSW 7.0 mph11.3 kmh 29.88 in1011.9 mb - 0.00 in0.0 mm 0.00 in0.0 mm
01:10 PM 69.9°F21.1°C 59.7°F15.4°C 70% 4.1 mph WNW6.6 kmh WNW 9.0 mph14.5 kmh 29.88 in1011.9 mb - 0.00 in0.0 mm 0.00 in0.0 mm
01:00 PM 69.7°F20.9°C 59.5°F15.3°C 70% 4.2 mph WNW6.8 kmh WNW 6.0 mph9.7 kmh 29.88 in1011.9 mb - 0.00 in0.0 mm 0.00 in0.0 mm
12:50 PM 69.8°F21.0°C 60.0°F15.6°C 71% 3.0 mph W4.8 kmh W 5.0 mph8.0 kmh 29.88 in1011.9 mb - 0.00 in0.0 mm 0.00 in0.0 mm
12:40 PM 69.9°F21.1°C 60.0°F15.6°C 71% 2.7 mph W4.3 kmh W 6.0 mph9.7 kmh 29.88 in1011.9 mb - 0.00 in0.0 mm 0.00 in0.0 mm
12:30 PM 69.4°F20.8°C 60.4°F15.8°C 73% 3.3 mph NW5.3 kmh NW 5.0 mph8.0 kmh 29.88 in1011.9 mb - 0.00 in0.0 mm 0.00 in0.0 mm
12:20 PM 69.4°F20.8°C 60.0°F15.6°C 72% 3.8 mph WSW6.1 kmh WSW 7.0 mph11.3 kmh 29.88 in1011.9 mb - 0.00 in0.0 mm 0.00 in0.0 mm
12:10 PM 70.2°F21.2°C 60.7°F15.9°C 72% 4.8 mph W7.7 kmh W 8.0 mph12.9 kmh 29.88 in1011.9 mb - 0.00 in0.0 mm 0.00 in0.0 mm
12:00 PM 69.6°F20.9°C 61.4°F16.3°C 75% 5.4 mph SW8.7 kmh SW 8.0 mph12.9 kmh 29.88 in1011.9 mb - 0.00 in0.0 mm 0.00 in0.0 mm
11:50 AM 68.6°F20.3°C 60.4°F15.8°C 75% 4.5 mph SW7.2 kmh SW 6.0 mph9.7 kmh 29.88 in1011.9 mb - 0.00 in0.0 mm 0.00 in0.0 mm
11:40 AM 68.0°F20.0°C 60.2°F15.7°C 76% 6.5 mph SW10.5 kmh SW 8.0 mph12.9 kmh 29.88 in1011.9 mb - 0.00 in0.0 mm 0.00 in0.0 mm
11:30 AM 67.7°F19.8°C 59.5°F15.3°C 75% 5.3 mph WSW8.5 kmh WSW 6.0 mph9.7 kmh 29.88 in1011.9 mb - 0.00 in0.0 mm 0.00 in0.0 mm
11:20 AM 67.7°F19.8°C 59.8°F15.4°C 76% 3.3 mph W5.3 kmh W 7.0 mph11.3 kmh 29.88 in1011.9 mb - 0.00 in0.0 mm 0.00 in0.0 mm
11:10 AM 67.1°F19.5°C 59.6°F15.3°C 77% 5.5 mph SW8.9 kmh SW 6.0 mph9.7 kmh 29.88 in1011.9 mb - 0.00 in0.0 mm 0.00 in0.0 mm
11:00 AM 66.9°F19.4°C 59.5°F15.3°C 77% 4.0 mph SSW6.4 kmh SSW 5.0 mph8.0 kmh 29.88 in1011.9 mb - 0.00 in0.0 mm 0.00 in0.0 mm
10:50 AM 67.0°F19.4°C 59.5°F15.3°C 77% 6.0 mph SW9.7 kmh SW 9.0 mph14.5 kmh 29.88 in1011.9 mb - 0.00 in0.0 mm 0.00 in0.0 mm
10:40 AM 66.9°F19.4°C 59.8°F15.4°C 78% 5.1 mph WSW8.2 kmh WSW 9.0 mph14.5 kmh 29.88 in1011.9 mb - 0.00 in0.0 mm 0.00 in0.0 mm
10:30 AM 66.5°F19.2°C 59.8°F15.4°C 79% 3.1 mph SW5.0 kmh SW 4.0 mph6.4 kmh 29.88 in1011.9 mb - 0.00 in0.0 mm 0.00 in0.0 mm
10:20 AM 66.2°F19.0°C 60.5°F15.8°C 82% 3.8 mph SSW6.1 kmh SSW 7.0 mph11.3 kmh 29.88 in1011.9 mb - 0.00 in0.0 mm 0.00 in0.0 mm
10:10 AM 65.3°F18.5°C 59.7°F15.4°C 82% 4.5 mph WSW7.2 kmh WSW 5.0 mph8.0 kmh 29.88 in1011.9 mb - 0.00 in0.0 mm 0.00 in0.0 mm
10:00 AM 65.1°F18.4°C 59.1°F15.1°C 81% 2.5 mph SW4.0 kmh SW 5.0 mph8.0 kmh 29.88 in1011.9 mb - 0.00 in0.0 mm 0.00 in0.0 mm
09:50 AM 64.7°F18.2°C 59.0°F15.0°C 82% 5.1 mph SW8.2 kmh SW 7.0 mph11.3 kmh 29.88 in1011.9 mb - 0.00 in0.0 mm 0.00 in0.0 mm
09:40 AM 64.3°F17.9°C 59.4°F15.2°C 84% 5.5 mph SW8.9 kmh SW 8.0 mph12.9 kmh 29.88 in1011.9 mb - 0.00 in0.0 mm 0.00 in0.0 mm
09:30 AM 63.6°F17.6°C 59.0°F15.0°C 85% 4.2 mph W6.8 kmh W 9.0 mph14.5 kmh 29.88 in1011.9 mb - 0.00 in0.0 mm 0.00 in0.0 mm
09:20 AM 63.3°F17.4°C 58.7°F14.8°C 85% 5.4 mph SW8.7 kmh SW 7.0 mph11.3 kmh 29.88 in1011.9 mb - 0.00 in0.0 mm 0.00 in0.0 mm
09:10 AM 62.8°F17.1°C 58.6°F14.8°C 86% 9.0 mph SW14.5 kmh SW 12.0 mph19.3 kmh 29.88 in1011.9 mb - 0.00 in0.0 mm 0.00 in0.0 mm
09:00 AM 62.5°F16.9°C 58.6°F14.8°C 87% 7.4 mph SW11.9 kmh SW 10.0 mph16.1 kmh 29.88 in1011.9 mb - 0.00 in0.0 mm 0.00 in0.0 mm
08:50 AM 62.2°F16.8°C 58.3°F14.6°C 87% 7.1 mph WSW11.4 kmh WSW 11.0 mph17.7 kmh 29.89 in1012.2 mb - 0.00 in0.0 mm 0.00 in0.0 mm
08:40 AM 62.1°F16.7°C 58.5°F14.7°C 88% 5.4 mph SSW8.7 kmh SSW 10.0 mph16.1 kmh 29.89 in1012.2 mb - 0.00 in0.0 mm 0.00 in0.0 mm
08:30 AM 61.8°F16.6°C 57.9°F14.4°C 87% 5.5 mph WSW8.9 kmh WSW 9.0 mph14.5 kmh 29.88 in1011.9 mb - 0.00 in0.0 mm 0.00 in0.0 mm
08:20 AM 61.6°F16.4°C 58.0°F14.4°C 88% 7.0 mph SW11.3 kmh SW 13.0 mph20.9 kmh 29.88 in1011.9 mb - 0.00 in0.0 mm 0.00 in0.0 mm
08:10 AM 61.5°F16.4°C 57.6°F14.2°C 87% 7.9 mph SW12.7 kmh SW 11.0 mph17.7 kmh 29.88 in1011.9 mb - 0.00 in0.0 mm 0.00 in0.0 mm
08:00 AM 61.6°F16.4°C 58.0°F14.4°C 88% 4.8 mph SW7.7 kmh SW 7.0 mph11.3 kmh 29.88 in1011.9 mb - 0.00 in0.0 mm 0.00 in0.0 mm
07:50 AM 61.1°F16.2°C 57.6°F14.2°C 88% 7.2 mph SSW11.6 kmh SSW 10.0 mph16.1 kmh 29.88 in1011.9 mb - 0.00 in0.0 mm 0.00 in0.0 mm
07:40 AM 61.0°F16.1°C 57.4°F14.1°C 88% 5.8 mph SW9.3 kmh SW 9.0 mph14.5 kmh 29.88 in1011.9 mb - 0.00 in0.0 mm 0.00 in0.0 mm
07:30 AM 60.9°F16.1°C 57.3°F14.1°C 88% 5.4 mph WSW8.7 kmh WSW 9.0 mph14.5 kmh 29.88 in1011.9 mb - 0.00 in0.0 mm 0.00 in0.0 mm
07:20 AM 60.5°F15.8°C 57.2°F14.0°C 89% 6.0 mph SSW9.7 kmh SSW 8.0 mph12.9 kmh 29.87 in1011.5 mb - 0.00 in0.0 mm 0.00 in0.0 mm
07:10 AM 60.2°F15.7°C 56.9°F13.8°C 89% 6.4 mph SW10.3 kmh SW 7.0 mph11.3 kmh 29.87 in1011.5 mb - 0.00 in0.0 mm 0.00 in0.0 mm
07:00 AM 60.1°F15.6°C 56.8°F13.8°C 89% 5.9 mph SW9.5 kmh SW 9.0 mph14.5 kmh 29.87 in1011.5 mb - 0.00 in0.0 mm 0.00 in0.0 mm
06:50 AM 60.0°F15.6°C 56.5°F13.6°C 88% 7.6 mph SW12.2 kmh SW 8.0 mph12.9 kmh 29.87 in1011.5 mb - 0.00 in0.0 mm 0.00 in0.0 mm
06:40 AM 59.9°F15.5°C 56.6°F13.7°C 89% 4.8 mph SW7.7 kmh SW 9.0 mph14.5 kmh 29.87 in1011.5 mb - 0.00 in0.0 mm 0.00 in0.0 mm
06:30 AM 59.8°F15.4°C 56.6°F13.7°C 89% 6.6 mph SW10.6 kmh SW 9.0 mph14.5 kmh 29.87 in1011.5 mb - 0.00 in0.0 mm 0.00 in0.0 mm
06:20 AM 59.6°F15.3°C 56.4°F13.6°C 89% 5.3 mph SSW8.5 kmh SSW 6.0 mph9.7 kmh 29.87 in1011.5 mb - 0.00 in0.0 mm 0.00 in0.0 mm
06:10 AM 59.5°F15.3°C 56.6°F13.7°C 90% 4.5 mph SW7.2 kmh SW 6.0 mph9.7 kmh 29.87 in1011.5 mb - 0.00 in0.0 mm 0.00 in0.0 mm
06:00 AM 59.4°F15.2°C 56.2°F13.4°C 89% 6.8 mph SW10.9 kmh SW 9.0 mph14.5 kmh 29.87 in1011.5 mb - 0.00 in0.0 mm 0.00 in0.0 mm
05:50 AM 59.3°F15.2°C 56.4°F13.6°C 90% 6.4 mph SW10.3 kmh SW 8.0 mph12.9 kmh 29.86 in1011.2 mb - 0.00 in0.0 mm 0.00 in0.0 mm
05:40 AM 59.3°F15.2°C 56.1°F13.4°C 89% 5.9 mph SW9.5 kmh SW 7.0 mph11.3 kmh 29.86 in1011.2 mb - 0.00 in0.0 mm 0.00 in0.0 mm
05:30 AM 59.2°F15.1°C 56.3°F13.5°C 90% 6.0 mph S9.7 kmh S 8.0 mph12.9 kmh 29.87 in1011.5 mb - 0.00 in0.0 mm 0.00 in0.0 mm
05:20 AM 59.2°F15.1°C 56.0°F13.3°C 89% 6.3 mph SW10.1 kmh SW 8.0 mph12.9 kmh 29.86 in1011.2 mb - 0.00 in0.0 mm 0.00 in0.0 mm
05:10 AM 59.1°F15.1°C 56.2°F13.4°C 90% 4.8 mph SW7.7 kmh SW 5.0 mph8.0 kmh 29.86 in1011.2 mb - 0.00 in0.0 mm 0.00 in0.0 mm
05:00 AM 59.0°F15.0°C 56.1°F13.4°C 90% 4.7 mph WSW7.6 kmh WSW 8.0 mph12.9 kmh 29.86 in1011.2 mb - 0.00 in0.0 mm 0.00 in0.0 mm
04:50 AM 58.8°F14.9°C 55.9°F13.3°C 90% 6.7 mph SW10.8 kmh SW 8.0 mph12.9 kmh 29.86 in1011.2 mb - 0.00 in0.0 mm 0.00 in0.0 mm
04:40 AM 58.8°F14.9°C 55.6°F13.1°C 89% 4.7 mph SW7.6 kmh SW 7.0 mph11.3 kmh 29.86 in1011.2 mb - 0.00 in0.0 mm 0.00 in0.0 mm
04:30 AM 58.9°F14.9°C 55.6°F13.1°C 89% 4.8 mph SW7.7 kmh SW 6.0 mph9.7 kmh 29.86 in1011.2 mb - 0.00 in0.0 mm 0.00 in0.0 mm
04:20 AM 58.8°F14.9°C 55.6°F13.1°C 89% 4.8 mph SW7.7 kmh SW 6.0 mph9.7 kmh 29.86 in1011.2 mb - 0.00 in0.0 mm 0.00 in0.0 mm
04:10 AM 58.5°F14.7°C 55.6°F13.1°C 90% 7.1 mph SW11.4 kmh SW 11.0 mph17.7 kmh 29.86 in1011.2 mb - 0.00 in0.0 mm 0.00 in0.0 mm
04:00 AM 58.4°F14.7°C 55.5°F13.1°C 90% 5.9 mph SW9.5 kmh SW 9.0 mph14.5 kmh 29.86 in1011.2 mb - 0.00 in0.0 mm 0.00 in0.0 mm
03:50 AM 58.4°F14.7°C 55.5°F13.1°C 90% 4.0 mph SW6.4 kmh SW 5.0 mph8.0 kmh 29.86 in1011.2 mb - 0.00 in0.0 mm 0.00 in0.0 mm
03:40 AM 58.4°F14.7°C 55.2°F12.9°C 89% 4.3 mph WSW6.9 kmh WSW 8.0 mph12.9 kmh 29.86 in1011.2 mb - 0.00 in0.0 mm 0.00 in0.0 mm
03:30 AM 58.6°F14.8°C 55.4°F13.0°C 89% 3.5 mph SW5.6 kmh SW 5.0 mph8.0 kmh 29.86 in1011.2 mb - 0.00 in0.0 mm 0.00 in0.0 mm
03:20 AM 58.8°F14.9°C 55.6°F13.1°C 89% 4.1 mph SW6.6 kmh SW 5.0 mph8.0 kmh 29.86 in1011.2 mb - 0.00 in0.0 mm 0.00 in0.0 mm
03:10 AM 58.7°F14.8°C 55.5°F13.1°C 89% 4.1 mph SW6.6 kmh SW 4.0 mph6.4 kmh 29.86 in1011.2 mb - 0.00 in0.0 mm 0.00 in0.0 mm
03:00 AM 58.7°F14.8°C 55.5°F13.1°C 89% 4.3 mph SW6.9 kmh SW 5.0 mph8.0 kmh 29.86 in1011.2 mb - 0.00 in0.0 mm 0.00 in0.0 mm
02:50 AM 58.6°F14.8°C 55.4°F13.0°C 89% 3.2 mph SW5.1 kmh SW 4.0 mph6.4 kmh 29.86 in1011.2 mb - 0.00 in0.0 mm 0.00 in0.0 mm
02:40 AM 58.7°F14.8°C 55.5°F13.1°C 89% 3.2 mph SSW5.1 kmh SSW 4.0 mph6.4 kmh 29.86 in1011.2 mb - 0.00 in0.0 mm 0.00 in0.0 mm
02:30 AM 58.7°F14.8°C 55.4°F13.0°C 89% 3.5 mph SW5.6 kmh SW 5.0 mph8.0 kmh 29.86 in1011.2 mb - 0.00 in0.0 mm 0.00 in0.0 mm
02:20 AM 58.8°F14.9°C 55.6°F13.1°C 89% 1.8 mph SW2.9 kmh SW 2.0 mph3.2 kmh 29.86 in1011.2 mb - 0.00 in0.0 mm 0.00 in0.0 mm
02:10 AM 59.0°F15.0°C 55.4°F13.0°C 88% 2.5 mph SW4.0 kmh SW 4.0 mph6.4 kmh 29.86 in1011.2 mb - 0.00 in0.0 mm 0.00 in0.0 mm
02:00 AM 59.1°F15.1°C 55.5°F13.1°C 88% 2.6 mph SW4.2 kmh SW 4.0 mph6.4 kmh 29.86 in1011.2 mb - 0.00 in0.0 mm 0.00 in0.0 mm
01:50 AM 59.4°F15.2°C 55.5°F13.1°C 87% 1.9 mph SW3.1 kmh SW 4.0 mph6.4 kmh 29.86 in1011.2 mb - 0.00 in0.0 mm 0.00 in0.0 mm
01:40 AM 59.6°F15.3°C 55.7°F13.2°C 87% 2.5 mph SW4.0 kmh SW 3.0 mph4.8 kmh 29.86 in1011.2 mb - 0.00 in0.0 mm 0.00 in0.0 mm
01:30 AM 59.9°F15.5°C 55.7°F13.2°C 86% 2.0 mph SW3.2 kmh SW 3.0 mph4.8 kmh 29.86 in1011.2 mb - 0.00 in0.0 mm 0.00 in0.0 mm
01:20 AM 60.3°F15.7°C 55.8°F13.2°C 85% 3.3 mph SW5.3 kmh SW 4.0 mph6.4 kmh 29.86 in1011.2 mb - 0.00 in0.0 mm 0.00 in0.0 mm
01:10 AM 60.7°F15.9°C 55.9°F13.3°C 84% 2.5 mph SW4.0 kmh SW 3.0 mph4.8 kmh 29.87 in1011.5 mb - 0.00 in0.0 mm 0.00 in0.0 mm
01:00 AM 61.3°F16.3°C 56.1°F13.4°C 83% 4.4 mph SW7.1 kmh SW 5.0 mph8.0 kmh 29.87 in1011.5 mb - 0.00 in0.0 mm 0.00 in0.0 mm
12:50 AM 61.5°F16.4°C 56.3°F13.5°C 83% 4.6 mph SW7.4 kmh SW 6.0 mph9.7 kmh 29.87 in1011.5 mb - 0.00 in0.0 mm 0.00 in0.0 mm
12:40 AM 61.9°F16.6°C 56.3°F13.5°C 82% 5.4 mph SW8.7 kmh SW 6.0 mph9.7 kmh 29.87 in1011.5 mb - 0.00 in0.0 mm 0.00 in0.0 mm
12:30 AM 62.3°F16.8°C 56.4°F13.6°C 81% 4.6 mph SW7.4 kmh SW 7.0 mph11.3 kmh 29.87 in1011.5 mb - 0.00 in0.0 mm 0.00 in0.0 mm
12:20 AM 62.7°F17.1°C 56.4°F13.6°C 80% 4.7 mph SW7.6 kmh SW 6.0 mph9.7 kmh 29.87 in1011.5 mb - 0.00 in0.0 mm 0.00 in0.0 mm
12:10 AM 63.0°F17.2°C 56.4°F13.6°C 79% 6.3 mph WSW10.1 kmh WSW 6.0 mph9.7 kmh 29.87 in1011.5 mb - 0.00 in0.0 mm 0.00 in0.0 mm
12:00 AM 63.2°F17.3°C 56.9°F13.8°C 80% 4.6 mph SW7.4 kmh SW 6.0 mph9.7 kmh 29.87 in1011.5 mb - 0.00 in0.0 mm 0.00 in0.0 mm